sensor_id;sensor_type;location;lat;lon;timestamp;pressure;altitude;pressure_sealevel;temperature;humidity
54546;BME280;40444;45.184;9.850;2022-09-01T00:00:45;100575.94;;;22.59;88.32
54546;BME280;40444;45.184;9.850;2022-09-01T00:03:18;100578.91;;;22.57;88.35
54546;BME280;40444;45.184;9.850;2022-09-01T00:05:47;100578.50;;;22.54;88.58
54546;BME280;40444;45.184;9.850;2022-09-01T00:08:22;100581.28;;;22.47;89.05
54546;BME280;40444;45.184;9.850;2022-09-01T00:10:51;100575.41;;;22.43;89.41
54546;BME280;40444;45.184;9.850;2022-09-01T00:13:19;100573.97;;;22.34;89.61
54546;BME280;40444;45.184;9.850;2022-09-01T00:15:48;100575.03;;;22.33;89.80
54546;BME280;40444;45.184;9.850;2022-09-01T00:18:16;100568.28;;;22.36;89.87
54546;BME280;40444;45.184;9.850;2022-09-01T00:20:44;100563.91;;;22.28;90.41
54546;BME280;40444;45.184;9.850;2022-09-01T00:23:13;100563.69;;;22.30;90.04
54546;BME280;40444;45.184;9.850;2022-09-01T00:25:41;100566.00;;;22.26;90.24
54546;BME280;40444;45.184;9.850;2022-09-01T00:28:10;100560.75;;;22.31;89.92
54546;BME280;40444;45.184;9.850;2022-09-01T00:30:39;100562.41;;;22.32;89.86
54546;BME280;40444;45.184;9.850;2022-09-01T00:33:08;100561.97;;;22.35;89.90
54546;BME280;40444;45.184;9.850;2022-09-01T00:35:36;100571.25;;;22.34;89.96
54546;BME280;40444;45.184;9.850;2022-09-01T00:38:05;100565.78;;;22.34;90.00
54546;BME280;40444;45.184;9.850;2022-09-01T00:40:34;100571.25;;;22.34;90.37
54546;BME280;40444;45.184;9.850;2022-09-01T00:43:14;100573.97;;;22.34;89.92
54546;BME280;40444;45.184;9.850;2022-09-01T00:45:44;100575.63;;;22.35;89.76
54546;BME280;40444;45.184;9.850;2022-09-01T00:48:13;100573.13;;;22.34;89.69
54546;BME280;40444;45.184;9.850;2022-09-01T00:50:42;100572.09;;;22.28;89.98
54546;BME280;40444;45.184;9.850;2022-09-01T00:53:15;100580.50;;;22.27;89.71
54546;BME280;40444;45.184;9.850;2022-09-01T00:55:44;100572.94;;;22.22;90.23
54546;BME280;40444;45.184;9.850;2022-09-01T00:58:13;100581.59;;;22.19;90.26
54546;BME280;40444;45.184;9.850;2022-09-01T01:00:48;100582.19;;;22.14;90.37
54546;BME280;40444;45.184;9.850;2022-09-01T01:03:18;100580.06;;;22.10;90.71
54546;BME280;40444;45.184;9.850;2022-09-01T01:05:51;100578.22;;;22.04;90.99
54546;BME280;40444;45.184;9.850;2022-09-01T01:08:31;100577.59;;;22.02;91.07
54546;BME280;40444;45.184;9.850;2022-09-01T01:11:08;100577.19;;;21.98;91.31
54546;BME280;40444;45.184;9.850;2022-09-01T01:16:18;100587.66;;;21.94;91.65
54546;BME280;40444;45.184;9.850;2022-09-01T01:18:47;100582.63;;;21.91;91.82
54546;BME280;40444;45.184;9.850;2022-09-01T01:21:24;100592.94;;;21.89;92.40
54546;BME280;40444;45.184;9.850;2022-09-01T01:26:51;100595.88;;;21.88;92.73
54546;BME280;40444;45.184;9.850;2022-09-01T01:29:20;100589.56;;;21.87;92.68
54546;BME280;40444;45.184;9.850;2022-09-01T01:31:49;100592.09;;;21.89;92.60
54546;BME280;40444;45.184;9.850;2022-09-01T01:34:21;100587.88;;;21.86;92.59
54546;BME280;40444;45.184;9.850;2022-09-01T01:36:51;100583.28;;;21.87;92.49
54546;BME280;40444;45.184;9.850;2022-09-01T01:39:23;100580.75;;;21.85;92.34
54546;BME280;40444;45.184;9.850;2022-09-01T01:41:54;100587.06;;;21.86;92.39
54546;BME280;40444;45.184;9.850;2022-09-01T01:44:25;100581.59;;;21.86;92.41
54546;BME280;40444;45.184;9.850;2022-09-01T01:46:59;100591.91;;;21.84;92.30
54546;BME280;40444;45.184;9.850;2022-09-01T01:49:33;100592.91;;;21.83;92.37
54546;BME280;40444;45.184;9.850;2022-09-01T01:52:02;100595.66;;;21.83;92.72
54546;BME280;40444;45.184;9.850;2022-09-01T01:54:35;100585.59;;;21.83;92.93
54546;BME280;40444;45.184;9.850;2022-09-01T01:57:04;100589.59;;;21.81;92.70
54546;BME280;40444;45.184;9.850;2022-09-01T01:59:33;100596.94;;;21.80;93.02
54546;BME280;40444;45.184;9.850;2022-09-01T02:02:01;100583.09;;;21.75;93.41
54546;BME280;40444;45.184;9.850;2022-09-01T02:04:31;100582.25;;;21.75;93.58
54546;BME280;40444;45.184;9.850;2022-09-01T02:07:09;100579.09;;;21.71;93.96
54546;BME280;40444;45.184;9.850;2022-09-01T02:09:40;100579.53;;;21.68;94.22
54546;BME280;40444;45.184;9.850;2022-09-01T02:12:15;100571.97;;;21.63;94.52
54546;BME280;40444;45.184;9.850;2022-09-01T02:14:46;100568.63;;;21.61;94.18
54546;BME280;40444;45.184;9.850;2022-09-01T02:17:17;100575.75;;;21.62;93.81
54546;BME280;40444;45.184;9.850;2022-09-01T02:19:46;100575.09;;;21.60;93.77
54546;BME280;40444;45.184;9.850;2022-09-01T02:22:15;100571.53;;;21.60;93.61
54546;BME280;40444;45.184;9.850;2022-09-01T02:24:47;100576.16;;;21.59;93.67
54546;BME280;40444;45.184;9.850;2022-09-01T02:27:17;100572.81;;;21.57;94.00
54546;BME280;40444;45.184;9.850;2022-09-01T02:29:52;100574.28;;;21.53;94.58
54546;BME280;40444;45.184;9.850;2022-09-01T02:32:25;100583.72;;;21.51;94.77
54546;BME280;40444;45.184;9.850;2022-09-01T02:34:53;100575.97;;;21.48;94.55
54546;BME280;40444;45.184;9.850;2022-09-01T02:37:28;100578.69;;;21.48;94.30
54546;BME280;40444;45.184;9.850;2022-09-01T02:39:57;100575.97;;;21.48;94.31
54546;BME280;40444;45.184;9.850;2022-09-01T02:42:25;100582.25;;;21.48;94.27
54546;BME280;40444;45.184;9.850;2022-09-01T02:44:57;100577.63;;;21.42;94.53
54546;BME280;40444;45.184;9.850;2022-09-01T02:47:29;100577.84;;;21.40;95.00
54546;BME280;40444;45.184;9.850;2022-09-01T02:49:58;100578.06;;;21.39;94.72
54546;BME280;40444;45.184;9.850;2022-09-01T02:52:29;100579.94;;;21.38;94.84
54546;BME280;40444;45.184;9.850;2022-09-01T02:55:03;100576.19;;;21.39;94.74
54546;BME280;40444;45.184;9.850;2022-09-01T02:57:32;100570.06;;;21.37;95.13
54546;BME280;40444;45.184;9.850;2022-09-01T03:00:06;100575.53;;;21.37;94.89
54546;BME280;40444;45.184;9.850;2022-09-01T03:02:49;100567.34;;;21.37;94.58
54546;BME280;40444;45.184;9.850;2022-09-01T03:05:24;100569.47;;;21.35;93.88
54546;BME280;40444;45.184;9.850;2022-09-01T03:08:07;100575.97;;;21.34;93.32
54546;BME280;40444;45.184;9.850;2022-09-01T03:10:40;100574.25;;;21.33;94.34
54546;BME280;40444;45.184;9.850;2022-09-01T03:13:20;100577.00;;;21.33;95.51
54546;BME280;40444;45.184;9.850;2022-09-01T03:15:49;100573.25;;;21.34;95.03
54546;BME280;40444;45.184;9.850;2022-09-01T03:18:18;100577.00;;;21.33;95.84
54546;BME280;40444;45.184;9.850;2022-09-01T03:20:47;100571.94;;;21.30;96.77
54546;BME280;40444;45.184;9.850;2022-09-01T03:23:18;100576.13;;;21.26;97.45
54546;BME280;40444;45.184;9.850;2022-09-01T03:25:48;100566.03;;;21.20;97.95
54546;BME280;40444;45.184;9.850;2022-09-01T03:28:16;100565.63;;;21.23;98.03
54546;BME280;40444;45.184;9.850;2022-09-01T03:30:50;100565.22;;;21.26;97.63
54546;BME280;40444;45.184;9.850;2022-09-01T03:33:22;100563.59;;;21.32;97.35
54546;BME280;40444;45.184;9.850;2022-09-01T03:35:53;100556.03;;;21.34;97.57
54546;BME280;40444;45.184;9.850;2022-09-01T03:38:22;100554.56;;;21.38;97.16
54546;BME280;40444;45.184;9.850;2022-09-01T03:40:55;100547.03;;;21.40;97.25
54546;BME280;40444;45.184;9.850;2022-09-01T03:43:32;100542.41;;;21.40;97.26
54546;BME280;40444;45.184;9.850;2022-09-01T03:46:03;100546.19;;;21.39;97.41
54546;BME280;40444;45.184;9.850;2022-09-01T03:48:34;100548.91;;;21.39;96.98
54546;BME280;40444;45.184;9.850;2022-09-01T03:51:03;100542.63;;;21.39;97.12
54546;BME280;40444;45.184;9.850;2022-09-01T03:53:33;100546.38;;;21.38;96.87
54546;BME280;40444;45.184;9.850;2022-09-01T03:56:05;100543.03;;;21.36;96.76
54546;BME280;40444;45.184;9.850;2022-09-01T03:58:34;100538.84;;;21.33;97.05
54546;BME280;40444;45.184;9.850;2022-09-01T19:15:13;100742.13;;;23.33;59.49
54546;BME280;40444;45.184;9.850;2022-09-01T19:23:35;100757.22;;;23.42;58.39
54546;BME280;40444;45.184;9.850;2022-09-01T19:26:14;100758.22;;;23.48;58.54
54546;BME280;40444;45.184;9.850;2022-09-01T19:28:49;100754.88;;;23.46;57.81
54546;BME280;40444;45.184;9.850;2022-09-01T19:31:39;100755.91;;;23.52;57.60
54546;BME280;40444;45.184;9.850;2022-09-01T19:34:14;100757.38;;;23.54;57.34
54546;BME280;40444;45.184;9.850;2022-09-01T19:37:09;100763.03;;;23.53;57.11
54546;BME280;40444;45.184;9.850;2022-09-01T19:39:41;100755.28;;;23.50;56.88
54546;BME280;40444;45.184;9.850;2022-09-01T19:42:40;100761.44;;;23.38;57.11
54546;BME280;40444;45.184;9.850;2022-09-01T19:46:02;100765.00;;;23.45;56.61
54546;BME280;40444;45.184;9.850;2022-09-01T19:48:14;100771.06;;;23.54;56.75
54546;BME280;40444;45.184;9.850;2022-09-01T19:50:51;100766.66;;;23.53;56.14
54546;BME280;40444;45.184;9.850;2022-09-01T19:53:50;100771.59;;;23.31;56.66
54546;BME280;40444;45.184;9.850;2022-09-01T20:01:56;100786.94;;;23.32;56.77
54546;BME280;40444;45.184;9.850;2022-09-01T20:10:19;100796.00;;;23.26;56.98
54546;BME280;40444;45.184;9.850;2022-09-01T20:13:29;100804.44;;;23.18;57.47
54546;BME280;40444;45.184;9.850;2022-09-01T20:16:23;100802.09;;;23.21;57.47
54546;BME280;40444;45.184;9.850;2022-09-01T20:21:49;100803.38;;;23.12;57.69
54546;BME280;40444;45.184;9.850;2022-09-01T20:27:02;100805.50;;;23.04;58.05
54546;BME280;40444;45.184;9.850;2022-09-01T20:29:46;100809.94;;;23.05;58.02
54546;BME280;40444;45.184;9.850;2022-09-01T20:32:22;100813.75;;;22.97;58.08
54546;BME280;40444;45.184;9.850;2022-09-01T20:34:59;100810.59;;;22.80;58.89
54546;BME280;40444;45.184;9.850;2022-09-01T20:37:35;100806.41;;;22.78;59.25
54546;BME280;40444;45.184;9.850;2022-09-01T20:40:10;100810.41;;;22.55;60.02
54546;BME280;40444;45.184;9.850;2022-09-01T20:43:17;100817.78;;;22.55;60.13
54546;BME280;40444;45.184;9.850;2022-09-01T20:45:37;100822.19;;;22.56;60.37
54546;BME280;40444;45.184;9.850;2022-09-01T20:48:13;100819.00;;;22.59;60.70
54546;BME280;40444;45.184;9.850;2022-09-01T20:51:05;100821.97;;;22.51;60.98
54546;BME280;40444;45.184;9.850;2022-09-01T21:02:36;100831.63;;;22.47;61.85
54546;BME280;40444;45.184;9.850;2022-09-01T21:08:22;100837.25;;;22.12;63.40
54546;BME280;40444;45.184;9.850;2022-09-01T21:11:03;100840.44;;;22.29;63.02
54546;BME280;40444;45.184;9.850;2022-09-01T21:16:27;100857.84;;;22.28;63.55
54546;BME280;40444;45.184;9.850;2022-09-01T21:19:05;100853.44;;;22.20;63.61
54546;BME280;40444;45.184;9.850;2022-09-01T21:24:25;100856.38;;;22.18;63.93
54546;BME280;40444;45.184;9.850;2022-09-01T21:26:54;100855.28;;;22.06;63.87
54546;BME280;40444;45.184;9.850;2022-09-01T21:31:58;100867.66;;;22.02;64.42
54546;BME280;40444;45.184;9.850;2022-09-01T21:34:26;100868.50;;;22.09;64.38
54546;BME280;40444;45.184;9.850;2022-09-01T21:36:55;100860.31;;;22.09;64.57
54546;BME280;40444;45.184;9.850;2022-09-01T21:39:23;100857.78;;;22.01;64.51
54546;BME280;40444;45.184;9.850;2022-09-01T21:41:52;100866.34;;;21.91;64.71
54546;BME280;40444;45.184;9.850;2022-09-01T21:44:20;100867.41;;;21.90;64.73
54546;BME280;40444;45.184;9.850;2022-09-01T21:46:49;100861.28;;;21.82;65.33
54546;BME280;40444;45.184;9.850;2022-09-01T21:49:18;100862.06;;;21.69;65.81
54546;BME280;40444;45.184;9.850;2022-09-01T21:51:46;100865.69;;;21.76;65.59
54546;BME280;40444;45.184;9.850;2022-09-01T21:54:14;100863.78;;;21.70;65.70
54546;BME280;40444;45.184;9.850;2022-09-01T21:56:42;100871.69;;;21.58;66.35
54546;BME280;40444;45.184;9.850;2022-09-01T21:59:11;100881.75;;;21.58;65.89
54546;BME280;40444;45.184;9.850;2022-09-01T22:01:43;100875.66;;;21.56;66.18
54546;BME280;40444;45.184;9.850;2022-09-01T22:04:12;100875.81;;;21.41;66.88
54546;BME280;40444;45.184;9.850;2022-09-01T22:06:40;100875.47;;;21.57;66.33
54546;BME280;40444;45.184;9.850;2022-09-01T22:09:09;100871.28;;;21.61;66.13
54546;BME280;40444;45.184;9.850;2022-09-01T22:11:49;100875.47;;;21.64;66.35
54546;BME280;40444;45.184;9.850;2022-09-01T22:14:19;100883.38;;;21.45;66.96
54546;BME280;40444;45.184;9.850;2022-09-01T22:16:48;100878.97;;;21.51;66.78
54546;BME280;40444;45.184;9.850;2022-09-01T22:19:17;100889.72;;;21.53;66.62
54546;BME280;40444;45.184;9.850;2022-09-01T22:21:46;100895.31;;;21.44;67.33
54546;BME280;40444;45.184;9.850;2022-09-01T22:24:15;100884.53;;;21.30;67.42
54546;BME280;40444;45.184;9.850;2022-09-01T22:26:46;100885.47;;;21.43;67.75
54546;BME280;40444;45.184;9.850;2022-09-01T22:29:15;100890.91;;;21.43;67.34
54546;BME280;40444;45.184;9.850;2022-09-01T22:31:45;100890.25;;;21.41;67.61
54546;BME280;40444;45.184;9.850;2022-09-01T22:34:14;100893.19;;;21.40;67.67
54546;BME280;40444;45.184;9.850;2022-09-01T22:36:45;100899.50;;;21.47;67.55
54546;BME280;40444;45.184;9.850;2022-09-01T22:39:16;100891.09;;;21.42;67.73
54546;BME280;40444;45.184;9.850;2022-09-01T22:41:46;100899.34;;;21.49;67.82
54546;BME280;40444;45.184;9.850;2022-09-01T22:44:14;100895.75;;;21.48;67.79
54546;BME280;40444;45.184;9.850;2022-09-01T22:46:43;100896.38;;;21.43;68.08
54546;BME280;40444;45.184;9.850;2022-09-01T22:49:11;100900.31;;;21.34;68.65
54546;BME280;40444;45.184;9.850;2022-09-01T22:51:41;100900.50;;;21.33;69.25
54546;BME280;40444;45.184;9.850;2022-09-01T22:54:10;100904.06;;;21.33;69.69
54546;BME280;40444;45.184;9.850;2022-09-01T22:56:40;100901.53;;;21.32;69.74
54546;BME280;40444;45.184;9.850;2022-09-01T22:59:12;100894.56;;;21.29;69.63
54546;BME280;40444;45.184;9.850;2022-09-01T23:01:44;100901.31;;;21.33;69.91
54546;BME280;40444;45.184;9.850;2022-09-01T23:04:14;100900.50;;;21.33;70.18
54546;BME280;40444;45.184;9.850;2022-09-01T23:06:46;100897.75;;;21.33;70.18
54546;BME280;40444;45.184;9.850;2022-09-01T23:09:17;100897.16;;;21.37;70.57
54546;BME280;40444;45.184;9.850;2022-09-01T23:11:46;100907.69;;;21.47;70.75
54546;BME280;40444;45.184;9.850;2022-09-01T23:14:15;100894.28;;;21.45;70.91
54546;BME280;40444;45.184;9.850;2022-09-01T23:16:43;100899.25;;;21.35;71.67
54546;BME280;40444;45.184;9.850;2022-09-01T23:19:12;100903.16;;;21.26;72.52
54546;BME280;40444;45.184;9.850;2022-09-01T23:21:40;100906.38;;;21.36;72.67
54546;BME280;40444;45.184;9.850;2022-09-01T23:24:09;100909.31;;;21.35;72.97
54546;BME280;40444;45.184;9.850;2022-09-01T23:26:40;100909.06;;;21.30;73.68
54546;BME280;40444;45.184;9.850;2022-09-01T23:29:08;100909.63;;;21.25;74.41
54546;BME280;40444;45.184;9.850;2022-09-01T23:31:37;100910.06;;;21.29;74.42
54546;BME280;40444;45.184;9.850;2022-09-01T23:34:07;100906.03;;;21.18;75.24
54546;BME280;40444;45.184;9.850;2022-09-01T23:36:35;100907.94;;;21.24;75.46
54546;BME280;40444;45.184;9.850;2022-09-01T23:39:04;100911.34;;;21.26;75.73
54546;BME280;40444;45.184;9.850;2022-09-01T23:41:35;100914.75;;;21.07;77.25
54546;BME280;40444;45.184;9.850;2022-09-01T23:44:06;100915.69;;;21.20;76.91
54546;BME280;40444;45.184;9.850;2022-09-01T23:46:43;100917.78;;;21.18;77.29
54546;BME280;40444;45.184;9.850;2022-09-01T23:49:13;100914.84;;;21.20;77.27
54546;BME280;40444;45.184;9.850;2022-09-01T23:51:43;100908.78;;;21.25;77.24
54546;BME280;40444;45.184;9.850;2022-09-01T23:54:11;100911.47;;;21.18;77.79
54546;BME280;40444;45.184;9.850;2022-09-01T23:56:40;100907.50;;;21.20;77.81
54546;BME280;40444;45.184;9.850;2022-09-01T23:59:09;100906.84;;;21.12;78.00
